createdAt,value
2022-11-14T00:00:03.040Z,1.90
2022-11-14T00:01:03.145Z,1.90
2022-11-14T00:02:03.161Z,1.90
2022-11-14T00:03:03.238Z,1.90
2022-11-14T00:04:03.122Z,1.90
2022-11-14T00:05:02.933Z,1.90
2022-11-14T00:06:02.851Z,1.90
2022-11-14T00:07:03.049Z,1.80
2022-11-14T00:08:03.125Z,1.80
2022-11-14T00:09:03.179Z,1.80
2022-11-14T00:10:03.250Z,1.80
2022-11-14T00:11:03.303Z,1.80
2022-11-14T00:12:03.458Z,1.80
2022-11-14T00:13:03.482Z,1.80
2022-11-14T00:14:03.540Z,1.80
2022-11-14T00:15:03.612Z,1.80
2022-11-14T00:16:02.618Z,1.80
2022-11-14T00:17:02.755Z,1.80
2022-11-14T00:18:02.677Z,1.70
2022-11-14T00:19:02.631Z,1.70
2022-11-14T00:20:02.812Z,1.70
2022-11-14T00:21:02.950Z,1.70
2022-11-14T00:22:02.928Z,1.60
2022-11-14T00:23:02.995Z,1.60
2022-11-14T00:24:03.003Z,1.60
2022-11-14T00:25:03.105Z,1.60
2022-11-14T00:26:03.230Z,1.60
2022-11-14T00:27:03.201Z,1.50
2022-11-14T00:28:03.132Z,1.50
2022-11-14T00:29:03.154Z,1.50
2022-11-14T00:30:03.238Z,1.40
2022-11-14T00:31:03.280Z,1.40
2022-11-14T00:32:03.386Z,1.40
2022-11-14T00:33:03.370Z,1.40
2022-11-14T00:34:03.338Z,1.40
2022-11-14T00:35:03.327Z,1.40
2022-11-14T00:36:03.328Z,1.30
2022-11-14T00:37:03.400Z,1.30
2022-11-14T00:38:03.474Z,1.30
2022-11-14T00:39:03.457Z,1.30
2022-11-14T00:40:03.487Z,1.30
2022-11-14T00:41:03.514Z,1.30
2022-11-14T00:42:02.668Z,1.30
2022-11-14T00:43:02.686Z,1.20
2022-11-14T00:44:03.624Z,1.20
2022-11-14T00:45:02.631Z,1.20
2022-11-14T00:46:02.680Z,1.20
2022-11-14T00:47:02.685Z,1.20
2022-11-14T00:48:02.705Z,1.10
2022-11-14T00:49:02.732Z,1.20
2022-11-14T00:50:02.890Z,1.30
2022-11-14T00:51:02.898Z,1.30
2022-11-14T00:52:02.907Z,1.40
2022-11-14T00:53:03.037Z,1.50
2022-11-14T00:54:03.093Z,1.60
2022-11-14T00:55:03.094Z,1.70
2022-11-14T00:56:03.235Z,1.80
2022-11-14T00:57:03.269Z,1.90
2022-11-14T00:58:03.145Z,2.00
2022-11-14T00:59:03.229Z,2.10
2022-11-14T01:00:03.142Z,2.20
2022-11-14T01:01:03.543Z,2.20
2022-11-14T01:02:03.331Z,2.20
2022-11-14T01:03:03.206Z,2.20
2022-11-14T01:04:03.238Z,2.20
2022-11-14T01:05:03.280Z,2.10
2022-11-14T01:06:03.460Z,2.00
2022-11-14T01:07:03.434Z,2.00
2022-11-14T01:08:03.404Z,1.90
2022-11-14T01:09:03.519Z,1.90
2022-11-14T01:10:03.718Z,1.80
2022-11-14T01:11:02.882Z,1.80
2022-11-14T01:12:02.858Z,1.80
2022-11-14T01:13:02.962Z,1.80
2022-11-14T01:14:03.027Z,1.70
2022-11-14T01:15:02.976Z,1.70
2022-11-14T01:16:03.143Z,1.70
2022-11-14T01:17:03.199Z,1.70
2022-11-14T01:18:03.160Z,1.70
2022-11-14T01:19:03.329Z,1.70
2022-11-14T01:20:03.316Z,1.80
2022-11-14T01:21:03.384Z,1.80
2022-11-14T01:22:06.089Z,1.90
2022-11-14T01:23:03.381Z,1.90
2022-11-14T01:24:03.413Z,2.00
2022-11-14T01:25:03.456Z,2.10
2022-11-14T01:26:03.492Z,2.10
2022-11-14T01:27:02.658Z,2.10
2022-11-14T01:28:02.707Z,2.10
2022-11-14T01:29:02.625Z,2.10
2022-11-14T01:30:03.594Z,2.10
2022-11-14T01:31:03.572Z,2.10
2022-11-14T01:32:03.646Z,2.00
2022-11-14T01:33:02.647Z,2.00
2022-11-14T01:34:02.681Z,2.00
2022-11-14T01:35:02.641Z,1.90
2022-11-14T01:36:02.625Z,1.90
2022-11-14T01:37:02.737Z,1.90
2022-11-14T01:38:02.850Z,1.90
2022-11-14T01:39:02.806Z,1.90
2022-11-14T01:40:02.863Z,1.80
2022-11-14T01:41:02.873Z,1.80
2022-11-14T01:42:02.899Z,1.80
2022-11-14T01:43:02.927Z,1.70
2022-11-14T01:44:02.930Z,1.70
2022-11-14T01:45:02.889Z,1.70
2022-11-14T01:46:03.078Z,1.70
2022-11-14T01:47:03.007Z,1.70
2022-11-14T01:48:03.060Z,1.70
2022-11-14T01:49:03.012Z,1.70
2022-11-14T01:50:03.092Z,1.60
2022-11-14T01:51:03.257Z,1.60
2022-11-14T01:52:03.138Z,1.60
2022-11-14T01:53:03.459Z,1.60
2022-11-14T01:54:03.596Z,1.60
2022-11-14T01:55:02.764Z,1.60
2022-11-14T01:56:02.692Z,1.60
2022-11-14T01:57:02.645Z,1.60
2022-11-14T01:58:02.637Z,1.60
2022-11-14T01:59:02.651Z,1.60
2022-11-14T02:00:02.711Z,1.60
2022-11-14T02:01:03.136Z,1.60
2022-11-14T02:02:03.119Z,1.60
2022-11-14T02:03:03.100Z,1.70
2022-11-14T02:04:05.408Z,1.70
2022-11-14T02:05:03.256Z,1.70
2022-11-14T02:06:03.215Z,1.80
2022-11-14T02:07:03.443Z,1.80
2022-11-14T02:08:02.693Z,1.80
2022-11-14T02:09:03.084Z,1.80
2022-11-14T02:10:03.097Z,1.80
2022-11-14T02:11:03.098Z,1.80
2022-11-14T02:12:03.084Z,1.70
2022-11-14T02:13:03.081Z,1.70
2022-11-14T02:14:03.303Z,1.70
2022-11-14T02:15:03.248Z,1.70
2022-11-14T02:16:03.209Z,1.60
2022-11-14T02:17:27.739Z,1.60
2022-11-14T02:18:03.382Z,1.60
2022-11-14T02:19:03.435Z,1.50
2022-11-14T02:20:05.215Z,1.50
2022-11-14T02:21:02.757Z,1.50
2022-11-14T02:22:02.756Z,1.50
2022-11-14T02:23:02.778Z,1.50
2022-11-14T02:24:02.883Z,1.40
2022-11-14T02:25:02.915Z,1.40
2022-11-14T02:26:02.954Z,1.40
2022-11-14T02:27:03.160Z,1.30
2022-11-14T02:28:03.169Z,1.30
2022-11-14T02:29:03.128Z,1.30
2022-11-14T02:30:03.156Z,1.30
2022-11-14T02:31:03.158Z,1.20
2022-11-14T02:32:06.840Z,1.20
2022-11-14T02:33:11.485Z,1.20
2022-11-14T02:34:03.365Z,1.10
2022-11-14T02:35:03.400Z,1.20
2022-11-14T02:36:03.473Z,1.10
2022-11-14T02:37:03.560Z,1.10
2022-11-14T02:38:03.492Z,1.10
2022-11-14T02:39:03.530Z,1.10
2022-11-14T02:40:03.482Z,1.10
2022-11-14T02:41:03.586Z,1.10
2022-11-14T02:42:03.568Z,1.10
2022-11-14T02:43:02.657Z,1.00
2022-11-14T02:44:02.755Z,1.00
2022-11-14T02:45:02.822Z,1.00
2022-11-14T02:46:05.742Z,1.00
2022-11-14T02:47:03.418Z,1.00
2022-11-14T02:48:03.377Z,1.00
2022-11-14T02:49:03.423Z,1.00
2022-11-14T02:50:03.370Z,1.00
2022-11-14T02:51:03.344Z,1.00
2022-11-14T02:52:03.461Z,1.00
2022-11-14T02:53:03.576Z,1.00
2022-11-14T02:54:02.591Z,1.00
2022-11-14T02:55:02.824Z,1.00
2022-11-14T02:56:02.921Z,1.00
2022-11-14T02:57:03.056Z,1.00
2022-11-14T02:58:03.191Z,1.00
2022-11-14T02:59:03.329Z,1.00
2022-11-14T03:00:02.741Z,1.00
2022-11-14T03:01:18.926Z,1.00
2022-11-14T03:02:02.868Z,1.00
2022-11-14T03:03:02.773Z,1.00
2022-11-14T03:04:02.688Z,1.00
2022-11-14T03:05:02.774Z,1.00
2022-11-14T03:06:02.793Z,1.00
2022-11-14T03:07:02.936Z,1.00
2022-11-14T03:08:02.890Z,1.00
2022-11-14T03:09:02.968Z,1.00
2022-11-14T03:10:02.846Z,1.00
2022-11-14T03:11:03.232Z,1.00
2022-11-14T03:12:03.281Z,0.90
2022-11-14T03:13:03.291Z,1.00
2022-11-14T03:14:03.324Z,0.90
2022-11-14T03:15:03.334Z,0.90
2022-11-14T03:16:03.285Z,0.90
2022-11-14T03:17:03.467Z,0.90
2022-11-14T03:18:03.453Z,0.90
2022-11-14T03:19:06.670Z,0.80
2022-11-14T03:20:03.545Z,0.80
2022-11-14T03:21:03.662Z,0.80
2022-11-14T03:22:02.731Z,0.80
2022-11-14T03:23:02.695Z,0.80
2022-11-14T03:24:02.626Z,0.80
2022-11-14T03:25:02.716Z,0.70
2022-11-14T03:26:02.821Z,0.70
2022-11-14T03:27:02.819Z,0.70
2022-11-14T03:28:02.846Z,0.70
2022-11-14T03:29:02.835Z,0.70
2022-11-14T03:30:02.966Z,0.70
2022-11-14T03:31:03.007Z,0.70
2022-11-14T03:32:03.241Z,0.70
2022-11-14T03:33:03.157Z,0.70
2022-11-14T03:34:03.200Z,0.70
2022-11-14T03:35:03.129Z,0.60
2022-11-14T03:36:03.194Z,0.60
2022-11-14T03:37:03.319Z,0.60
2022-11-14T03:38:03.434Z,0.70
2022-11-14T03:39:03.332Z,0.70
2022-11-14T03:40:03.418Z,0.60
2022-11-14T03:41:03.441Z,0.70
2022-11-14T03:42:03.396Z,0.70
2022-11-14T03:43:03.514Z,0.70
2022-11-14T03:44:02.891Z,0.60
2022-11-14T03:45:03.074Z,0.70
2022-11-14T03:46:03.082Z,0.70
2022-11-14T03:47:03.091Z,0.70
2022-11-14T03:48:03.199Z,0.70
2022-11-14T03:49:03.146Z,0.70
2022-11-14T03:50:03.176Z,0.70
2022-11-14T03:51:03.320Z,0.70
2022-11-14T03:52:03.223Z,0.60
2022-11-14T03:53:03.258Z,0.60
2022-11-14T03:54:03.289Z,0.60
2022-11-14T03:55:03.342Z,0.60
2022-11-14T03:56:02.615Z,0.60
2022-11-14T03:57:02.755Z,0.60
2022-11-14T03:58:02.905Z,0.60
2022-11-14T03:59:02.811Z,0.60
2022-11-14T04:00:02.846Z,0.60
2022-11-14T04:01:02.821Z,0.60
2022-11-14T04:02:02.755Z,0.60
2022-11-14T04:03:02.862Z,0.60
2022-11-14T04:04:03.352Z,0.60
2022-11-14T04:05:03.266Z,0.70
2022-11-14T04:06:03.317Z,0.60
2022-11-14T04:07:03.326Z,0.70
2022-11-14T04:08:03.287Z,0.70
2022-11-14T04:09:03.292Z,0.70
2022-11-14T04:10:03.258Z,0.70
2022-11-14T04:11:03.321Z,0.70
2022-11-14T04:12:03.386Z,0.70
2022-11-14T04:13:03.501Z,0.70
2022-11-14T04:14:03.533Z,0.70
2022-11-14T04:15:02.685Z,0.70
2022-11-14T04:16:02.669Z,0.70
2022-11-14T04:17:03.099Z,0.70
2022-11-14T04:18:03.063Z,0.70
2022-11-14T04:19:03.180Z,0.70
2022-11-14T04:20:03.144Z,0.70
2022-11-14T04:21:03.181Z,0.70
2022-11-14T04:22:03.195Z,0.70
2022-11-14T04:23:03.230Z,0.70
2022-11-14T04:24:07.123Z,0.70
2022-11-14T04:25:03.220Z,0.70
2022-11-14T04:26:03.215Z,0.70
2022-11-14T04:27:03.197Z,0.70
2022-11-14T04:28:03.300Z,0.70
2022-11-14T04:29:03.475Z,0.70
2022-11-14T04:30:03.533Z,0.70
2022-11-14T04:31:02.618Z,0.70
2022-11-14T04:32:02.777Z,0.70
2022-11-14T04:33:02.729Z,0.70
2022-11-14T04:34:02.874Z,0.70
2022-11-14T04:35:02.857Z,0.70
2022-11-14T04:36:02.921Z,0.70
2022-11-14T04:37:03.429Z,0.80
2022-11-14T04:38:03.620Z,0.80
2022-11-14T04:39:03.624Z,0.80
2022-11-14T04:40:02.649Z,0.80
2022-11-14T04:41:02.840Z,0.80
2022-11-14T04:42:02.848Z,0.80
2022-11-14T04:43:02.880Z,0.70
2022-11-14T04:44:03.028Z,0.70
2022-11-14T04:45:03.208Z,0.70
2022-11-14T04:46:03.266Z,0.70
2022-11-14T04:47:03.445Z,0.70
2022-11-14T04:48:03.526Z,0.70
2022-11-14T04:49:02.594Z,0.70
2022-11-14T04:50:02.746Z,0.70
2022-11-14T04:51:02.714Z,0.70
2022-11-14T04:52:02.776Z,0.70
2022-11-14T04:53:02.865Z,0.70
2022-11-14T04:54:03.182Z,0.70
2022-11-14T04:55:03.019Z,0.70
2022-11-14T04:56:03.245Z,0.70
2022-11-14T04:57:03.147Z,0.70
2022-11-14T04:58:03.203Z,0.70
2022-11-14T04:59:03.472Z,0.70
2022-11-14T05:00:03.638Z,0.70
2022-11-14T05:01:03.596Z,0.70
2022-11-14T05:02:02.876Z,0.70
2022-11-14T05:03:02.922Z,0.70
2022-11-14T05:04:03.088Z,0.70
2022-11-14T05:05:03.136Z,0.70
2022-11-14T05:06:03.094Z,0.70
2022-11-14T05:07:03.391Z,0.70
2022-11-14T05:08:03.399Z,0.70
2022-11-14T05:09:03.535Z,0.70
2022-11-14T05:10:02.673Z,0.70
2022-11-14T05:11:02.686Z,0.80
2022-11-14T05:12:02.764Z,0.80
2022-11-14T05:13:02.895Z,0.70
2022-11-14T05:14:03.062Z,0.80
2022-11-14T05:15:03.018Z,0.80
2022-11-14T05:16:03.023Z,0.80
2022-11-14T05:17:03.117Z,0.80
2022-11-14T05:18:03.465Z,0.80
2022-11-14T05:19:03.631Z,0.80
2022-11-14T05:20:03.349Z,0.80
2022-11-14T05:21:03.382Z,0.80
2022-11-14T05:22:03.548Z,0.80
2022-11-14T05:23:03.564Z,0.80
2022-11-14T05:24:02.748Z,0.80
2022-11-14T05:25:04.214Z,0.70
2022-11-14T05:26:03.108Z,0.70
2022-11-14T05:27:03.200Z,0.70
2022-11-14T05:28:03.178Z,0.70
2022-11-14T05:29:03.189Z,0.70
2022-11-14T05:30:03.242Z,0.70
2022-11-14T05:31:03.309Z,0.70
2022-11-14T05:32:03.384Z,0.70
2022-11-14T05:33:03.371Z,0.70
2022-11-14T05:34:03.402Z,0.70
2022-11-14T05:35:03.545Z,0.70
2022-11-14T05:36:03.453Z,0.60
2022-11-14T05:37:03.469Z,0.60
2022-11-14T05:38:03.513Z,0.60
2022-11-14T05:39:03.524Z,0.60
2022-11-14T05:40:02.698Z,0.60
2022-11-14T05:41:02.605Z,0.60
2022-11-14T05:42:02.703Z,0.60
2022-11-14T05:43:02.791Z,0.60
2022-11-14T05:44:02.787Z,0.60
2022-11-14T05:45:02.755Z,0.60
2022-11-14T05:46:02.757Z,0.60
2022-11-14T05:47:02.808Z,0.60
2022-11-14T05:48:02.871Z,0.50
2022-11-14T05:49:02.776Z,0.50
2022-11-14T05:50:02.790Z,0.50
2022-11-14T05:51:02.836Z,0.50
2022-11-14T05:52:02.989Z,0.60
2022-11-14T05:53:02.955Z,0.50
2022-11-14T05:54:03.060Z,0.60
2022-11-14T05:55:03.159Z,0.60
2022-11-14T05:56:03.196Z,0.60
2022-11-14T05:57:03.251Z,0.60
2022-11-14T05:58:03.297Z,0.60
2022-11-14T05:59:03.560Z,0.60
2022-11-14T06:00:03.384Z,0.60
2022-11-14T06:01:03.487Z,0.60
2022-11-14T06:02:03.512Z,0.70
2022-11-14T06:03:03.473Z,0.70
2022-11-14T06:04:03.568Z,0.70
2022-11-14T06:05:03.638Z,0.70
2022-11-14T06:06:03.545Z,0.70
2022-11-14T06:07:03.594Z,0.80
2022-11-14T06:08:02.640Z,0.80
2022-11-14T06:09:02.717Z,0.80
2022-11-14T06:10:02.696Z,0.80
2022-11-14T06:11:02.675Z,0.90
2022-11-14T06:12:02.712Z,0.90
2022-11-14T06:13:02.720Z,0.90
2022-11-14T06:14:05.793Z,0.90
2022-11-14T06:15:02.724Z,0.90
2022-11-14T06:16:02.802Z,1.00
2022-11-14T06:17:02.819Z,1.00
2022-11-14T06:18:02.829Z,1.00
2022-11-14T06:19:02.867Z,1.00
2022-11-14T06:20:02.852Z,1.00
2022-11-14T06:21:02.813Z,1.00
2022-11-14T06:22:02.913Z,1.00
2022-11-14T06:23:02.872Z,1.10
2022-11-14T06:24:02.867Z,1.10
2022-11-14T06:25:02.756Z,1.10
2022-11-14T06:26:02.981Z,1.10
2022-11-14T06:27:02.994Z,1.10
2022-11-14T06:28:02.868Z,1.10
2022-11-14T06:29:02.948Z,1.10
2022-11-14T06:30:02.949Z,1.20
2022-11-14T06:31:02.960Z,1.10
2022-11-14T06:32:02.902Z,1.10
2022-11-14T06:33:02.930Z,1.20
2022-11-14T06:34:02.864Z,1.20
2022-11-14T06:35:02.872Z,1.20
2022-11-14T06:36:02.974Z,1.20
2022-11-14T06:37:02.921Z,1.20
2022-11-14T06:38:03.057Z,1.20
2022-11-14T06:39:03.113Z,1.20
2022-11-14T06:40:03.023Z,1.20
2022-11-14T06:41:02.967Z,1.20
2022-11-14T06:42:03.206Z,1.20
2022-11-14T06:43:03.012Z,1.30
2022-11-14T06:44:03.054Z,1.30
2022-11-14T06:45:03.026Z,1.30
2022-11-14T06:46:03.042Z,1.30
2022-11-14T06:47:02.991Z,1.30
2022-11-14T06:48:03.056Z,1.40
2022-11-14T06:49:02.949Z,1.40
2022-11-14T06:50:03.026Z,1.40
2022-11-14T06:51:02.761Z,1.40
2022-11-14T06:52:02.845Z,1.50
2022-11-14T06:53:02.872Z,1.50
2022-11-14T06:54:03.022Z,1.50
2022-11-14T06:55:02.941Z,1.60
2022-11-14T06:56:03.016Z,1.70
2022-11-14T06:57:03.003Z,1.70
2022-11-14T06:58:03.006Z,1.80
2022-11-14T06:59:03.209Z,1.80
2022-11-14T07:00:03.297Z,1.90
2022-11-14T07:01:03.351Z,1.90
2022-11-14T07:02:03.486Z,1.90
2022-11-14T07:03:03.658Z,2.00
2022-11-14T07:04:02.682Z,2.00
2022-11-14T07:05:02.798Z,2.00
2022-11-14T07:06:02.973Z,2.10
2022-11-14T07:07:02.628Z,2.10
2022-11-14T07:08:02.745Z,2.20
2022-11-14T07:09:02.768Z,2.20
2022-11-14T07:10:03.291Z,2.20
2022-11-14T07:11:03.221Z,2.30
2022-11-14T07:12:03.279Z,2.30
2022-11-14T07:13:03.333Z,2.40
2022-11-14T07:14:03.480Z,2.50
2022-11-14T07:15:02.623Z,2.50
2022-11-14T07:16:02.763Z,2.60
2022-11-14T07:17:02.875Z,2.60
2022-11-14T07:18:02.907Z,2.70
2022-11-14T07:19:02.894Z,2.70
2022-11-14T07:20:03.029Z,2.70
2022-11-14T07:21:02.977Z,2.70
2022-11-14T07:22:03.058Z,2.80
2022-11-14T07:23:02.993Z,2.80
2022-11-14T07:24:03.083Z,2.80
2022-11-14T07:25:03.122Z,2.90
2022-11-14T07:26:03.208Z,2.90
2022-11-14T07:27:03.284Z,3.00
2022-11-14T07:28:03.416Z,3.00
2022-11-14T07:29:03.398Z,3.00
2022-11-14T07:30:03.363Z,3.10
2022-11-14T07:31:03.562Z,3.10
2022-11-14T07:32:02.676Z,3.20
2022-11-14T07:33:02.706Z,3.20
2022-11-14T07:34:02.734Z,3.20
2022-11-14T07:35:02.821Z,3.30
2022-11-14T07:36:02.662Z,3.30
2022-11-14T07:37:02.756Z,3.30
2022-11-14T07:38:02.756Z,3.30
2022-11-14T07:39:02.697Z,3.40
2022-11-14T07:40:02.781Z,3.40
2022-11-14T07:41:02.795Z,3.40
2022-11-14T07:42:02.881Z,3.50
2022-11-14T07:43:02.812Z,3.50
2022-11-14T07:44:02.871Z,3.50
2022-11-14T07:45:02.934Z,3.50
2022-11-14T07:46:02.870Z,3.60
2022-11-14T07:47:02.806Z,3.60
2022-11-14T07:48:02.888Z,3.60
2022-11-14T07:49:02.946Z,3.60
2022-11-14T07:50:02.949Z,3.70
2022-11-14T07:51:03.084Z,3.70
2022-11-14T07:52:03.221Z,3.80
2022-11-14T07:53:03.202Z,3.80
2022-11-14T07:54:03.273Z,3.90
2022-11-14T07:55:03.169Z,4.00
2022-11-14T07:56:03.256Z,4.00
2022-11-14T07:57:03.293Z,4.00
2022-11-14T07:58:03.404Z,4.10
2022-11-14T07:59:03.357Z,4.10
2022-11-14T08:00:03.432Z,4.10
2022-11-14T08:01:03.433Z,4.20
2022-11-14T08:02:03.441Z,4.20
2022-11-14T08:03:03.558Z,4.30
2022-11-14T08:04:02.689Z,4.30
2022-11-14T08:05:02.811Z,4.40
2022-11-14T08:06:02.859Z,4.40
2022-11-14T08:07:02.760Z,4.40
2022-11-14T08:08:02.854Z,4.50
2022-11-14T08:09:02.899Z,4.50
2022-11-14T08:10:02.970Z,4.60
2022-11-14T08:11:02.942Z,4.60
2022-11-14T08:12:03.050Z,4.70
2022-11-14T08:13:30.075Z,4.70
2022-11-14T08:14:03.189Z,4.70
2022-11-14T08:15:03.304Z,4.80
2022-11-14T08:16:05.635Z,4.80
2022-11-14T08:17:03.219Z,4.90
2022-11-14T08:18:03.330Z,4.90
2022-11-14T08:19:03.414Z,4.90
2022-11-14T08:20:03.310Z,5.00
2022-11-14T08:21:03.474Z,5.00
2022-11-14T08:22:03.507Z,5.10
2022-11-14T08:23:02.705Z,5.10
2022-11-14T08:24:02.681Z,5.10
2022-11-14T08:25:02.740Z,5.20
2022-11-14T08:26:02.802Z,5.20
2022-11-14T08:27:03.008Z,5.30
2022-11-14T08:28:02.943Z,5.30
2022-11-14T08:29:03.032Z,5.30
2022-11-14T08:30:03.092Z,5.40
2022-11-14T08:31:03.037Z,5.40
2022-11-14T08:32:02.884Z,5.40
2022-11-14T08:33:02.857Z,5.40
2022-11-14T08:34:03.081Z,5.50
2022-11-14T08:35:03.011Z,5.50
2022-11-14T08:36:03.085Z,5.50
2022-11-14T08:37:03.087Z,5.60
2022-11-14T08:38:03.029Z,5.60
2022-11-14T08:39:03.213Z,5.70
2022-11-14T08:40:03.159Z,5.70
2022-11-14T08:41:03.274Z,5.70
2022-11-14T08:42:03.345Z,5.80
2022-11-14T08:43:03.346Z,5.80
2022-11-14T08:44:03.519Z,5.90
2022-11-14T08:45:03.491Z,5.90
2022-11-14T08:46:03.457Z,6.00
2022-11-14T08:47:03.564Z,6.00
2022-11-14T08:48:03.637Z,6.10
2022-11-14T08:49:03.576Z,6.10
2022-11-14T08:50:03.600Z,6.20
2022-11-14T08:51:03.591Z,6.20
2022-11-14T08:52:03.567Z,6.30
2022-11-14T08:53:03.492Z,6.40
2022-11-14T08:54:03.611Z,6.40
2022-11-14T08:55:03.522Z,6.40
2022-11-14T08:56:03.669Z,6.50
2022-11-14T08:57:03.658Z,6.60
2022-11-14T08:58:02.698Z,6.60
2022-11-14T08:59:02.869Z,6.70
2022-11-14T09:00:02.847Z,6.70
2022-11-14T09:01:02.955Z,6.80
2022-11-14T09:02:03.024Z,6.80
2022-11-14T09:03:03.107Z,6.80
2022-11-14T09:04:03.301Z,6.90
2022-11-14T09:05:02.980Z,6.90
2022-11-14T09:06:02.979Z,7.00
2022-11-14T09:07:03.067Z,7.00
2022-11-14T09:08:03.084Z,7.00
2022-11-14T09:09:03.074Z,7.10
2022-11-14T09:10:03.011Z,7.10
2022-11-14T09:11:05.465Z,7.20
2022-11-14T09:12:03.337Z,7.20
2022-11-14T09:13:03.324Z,7.20
2022-11-14T09:14:03.389Z,7.30
2022-11-14T09:15:03.469Z,7.30
2022-11-14T09:16:03.562Z,7.40
2022-11-14T09:17:06.024Z,7.40
2022-11-14T09:18:02.727Z,7.40
2022-11-14T09:19:02.743Z,7.50
2022-11-14T09:20:02.714Z,7.50
2022-11-14T09:21:02.769Z,7.60
2022-11-14T09:22:03.002Z,7.60
2022-11-14T09:23:03.032Z,7.60
2022-11-14T09:24:03.044Z,7.70
2022-11-14T09:25:02.998Z,7.70
2022-11-14T09:26:02.983Z,7.70
2022-11-14T09:27:03.015Z,7.80
2022-11-14T09:28:03.076Z,7.80
2022-11-14T09:29:03.086Z,7.90
2022-11-14T09:30:03.140Z,7.90
2022-11-14T09:31:03.196Z,8.00
2022-11-14T09:32:03.156Z,8.00
2022-11-14T09:33:07.034Z,8.00
2022-11-14T09:34:03.283Z,8.10
2022-11-14T09:35:03.354Z,8.10
2022-11-14T09:36:03.592Z,8.20
2022-11-14T09:37:03.493Z,8.20
2022-11-14T09:38:03.660Z,8.20
2022-11-14T09:39:02.639Z,8.30
2022-11-14T09:40:02.816Z,8.30
2022-11-14T09:41:02.890Z,8.30
2022-11-14T09:42:02.990Z,8.30
2022-11-14T09:43:03.062Z,8.40
2022-11-14T09:44:03.178Z,8.40
2022-11-14T09:45:03.157Z,8.40
2022-11-14T09:46:03.230Z,8.50
2022-11-14T09:47:03.248Z,8.50
2022-11-14T09:48:03.298Z,8.50
2022-11-14T09:49:03.331Z,8.60
2022-11-14T09:50:03.470Z,8.60
2022-11-14T09:51:03.534Z,8.60
2022-11-14T09:52:03.565Z,8.60
2022-11-14T09:53:03.544Z,8.60
2022-11-14T09:54:02.718Z,8.70
2022-11-14T09:55:02.777Z,8.70
2022-11-14T09:56:02.751Z,8.70
2022-11-14T09:57:02.837Z,8.80
2022-11-14T09:58:02.850Z,8.80
2022-11-14T09:59:03.030Z,8.80
2022-11-14T10:00:02.975Z,8.90
2022-11-14T10:01:06.469Z,8.90
2022-11-14T10:02:03.085Z,8.90
2022-11-14T10:03:03.136Z,9.00
2022-11-14T10:04:07.090Z,9.00
2022-11-14T10:05:03.227Z,9.00
2022-11-14T10:06:03.358Z,9.10
2022-11-14T10:07:03.316Z,9.10
2022-11-14T10:08:03.319Z,9.10
2022-11-14T10:09:03.339Z,9.10
2022-11-14T10:10:03.309Z,9.20
2022-11-14T10:11:03.522Z,9.20
2022-11-14T10:12:03.569Z,9.20
2022-11-14T10:13:03.506Z,9.30
2022-11-14T10:14:03.579Z,9.30
2022-11-14T10:15:02.610Z,9.30
2022-11-14T10:16:02.841Z,9.40
2022-11-14T10:17:06.504Z,9.40
2022-11-14T10:18:02.893Z,9.40
2022-11-14T10:19:02.880Z,9.40
2022-11-14T10:20:02.900Z,9.50
2022-11-14T10:21:03.004Z,9.50
2022-11-14T10:22:02.952Z,9.60
2022-11-14T10:23:03.001Z,9.60
2022-11-14T10:24:03.039Z,9.60
2022-11-14T10:25:03.192Z,9.60
2022-11-14T10:26:03.213Z,9.60
2022-11-14T10:27:03.163Z,9.70
2022-11-14T10:28:05.306Z,9.70
2022-11-14T10:29:03.286Z,9.70
2022-11-14T10:30:03.221Z,9.80
2022-11-14T10:31:03.317Z,9.80
2022-11-14T10:32:03.442Z,9.80
2022-11-14T10:33:03.613Z,9.80
2022-11-14T10:34:03.594Z,9.90
2022-11-14T10:35:02.642Z,9.90
2022-11-14T10:36:02.829Z,9.90
2022-11-14T10:37:02.967Z,9.90
2022-11-14T10:38:02.960Z,10.00
2022-11-14T10:39:03.070Z,10.00
2022-11-14T10:40:03.088Z,10.00
2022-11-14T10:41:03.098Z,10.10
2022-11-14T10:42:07.586Z,10.10
2022-11-14T10:43:03.209Z,10.10
2022-11-14T10:44:03.281Z,10.20
2022-11-14T10:45:03.353Z,10.20
2022-11-14T10:46:03.377Z,10.20
2022-11-14T10:47:03.326Z,10.30
2022-11-14T10:48:03.525Z,10.30
2022-11-14T10:49:03.613Z,10.30
2022-11-14T10:50:03.657Z,10.40
2022-11-14T10:51:02.792Z,10.40
2022-11-14T10:52:02.830Z,10.40
2022-11-14T10:53:02.818Z,10.50
2022-11-14T10:54:02.941Z,10.50
2022-11-14T10:55:02.962Z,10.50
2022-11-14T10:56:04.509Z,10.60
2022-11-14T10:57:03.166Z,10.60
2022-11-14T10:58:03.130Z,10.60
2022-11-14T10:59:03.257Z,10.60
2022-11-14T11:00:03.338Z,10.60
2022-11-14T11:01:03.382Z,10.60
2022-11-14T11:02:03.389Z,10.70
2022-11-14T11:03:03.604Z,10.70
2022-11-14T11:04:02.734Z,10.70
2022-11-14T11:05:02.776Z,10.70
2022-11-14T11:06:02.754Z,10.70
2022-11-14T11:07:02.860Z,10.70
2022-11-14T11:08:10.271Z,10.80
2022-11-14T11:09:03.033Z,10.80
2022-11-14T11:10:03.001Z,10.80
2022-11-14T11:11:02.935Z,10.90
2022-11-14T11:12:03.018Z,10.90
2022-11-14T11:13:03.105Z,10.90
2022-11-14T11:14:03.097Z,10.90
2022-11-14T11:15:03.169Z,11.00
2022-11-14T11:16:03.371Z,11.00
2022-11-14T11:17:03.550Z,11.00
2022-11-14T11:18:03.464Z,11.00
2022-11-14T11:19:03.611Z,11.10
2022-11-14T11:20:06.503Z,11.10
2022-11-14T11:21:03.577Z,11.10
2022-11-14T11:22:03.534Z,11.20
2022-11-14T11:23:03.692Z,11.20
2022-11-14T11:24:03.645Z,11.20
2022-11-14T11:25:03.532Z,11.20
2022-11-14T11:26:02.733Z,11.30
2022-11-14T11:27:02.713Z,11.30
2022-11-14T11:28:02.761Z,11.30
2022-11-14T11:29:02.845Z,11.40
2022-11-14T11:30:02.918Z,11.40
2022-11-14T11:31:02.928Z,11.40
2022-11-14T11:32:02.994Z,11.40
2022-11-14T11:33:03.011Z,11.50
2022-11-14T11:34:03.099Z,11.50
2022-11-14T11:35:03.077Z,11.50
2022-11-14T11:36:03.130Z,11.50
2022-11-14T11:37:03.174Z,11.50
2022-11-14T11:38:03.191Z,11.50
2022-11-14T11:39:03.263Z,11.60
2022-11-14T11:40:03.293Z,11.60
2022-11-14T11:41:03.260Z,11.60
2022-11-14T11:42:10.429Z,11.60
2022-11-14T11:43:38.692Z,11.70
2022-11-14T11:44:04.020Z,11.70
2022-11-14T11:45:02.686Z,11.70
2022-11-14T11:46:02.809Z,11.70
2022-11-14T11:47:02.890Z,11.70
2022-11-14T11:48:02.801Z,11.80
2022-11-14T11:49:02.905Z,11.80
2022-11-14T11:50:03.035Z,11.80
2022-11-14T11:51:02.941Z,11.80
2022-11-14T11:52:02.952Z,11.90
2022-11-14T11:53:02.866Z,11.90
2022-11-14T11:54:02.936Z,11.90
2022-11-14T11:55:03.011Z,12.00
2022-11-14T11:56:03.033Z,12.00
2022-11-14T11:57:03.158Z,12.00
2022-11-14T11:58:03.313Z,12.00
2022-11-14T11:59:03.356Z,12.10
2022-11-14T12:00:03.312Z,12.10
2022-11-14T12:01:03.343Z,12.10
2022-11-14T12:02:03.566Z,12.10
2022-11-14T12:03:03.714Z,12.10
2022-11-14T12:04:03.591Z,12.10
2022-11-14T12:05:03.480Z,12.10
2022-11-14T12:06:03.470Z,12.10
2022-11-14T12:07:02.672Z,12.20
2022-11-14T12:08:02.721Z,12.20
2022-11-14T12:09:02.833Z,12.20
2022-11-14T12:10:10.058Z,12.20
2022-11-14T12:11:02.757Z,12.20
2022-11-14T12:12:02.759Z,12.20
2022-11-14T12:13:02.934Z,12.30
2022-11-14T12:14:02.904Z,12.30
2022-11-14T12:15:02.975Z,12.30
2022-11-14T12:16:03.105Z,12.30
2022-11-14T12:17:03.125Z,12.30
2022-11-14T12:18:03.304Z,12.30
2022-11-14T12:19:03.348Z,12.30
2022-11-14T12:20:03.335Z,12.30
2022-11-14T12:21:03.309Z,12.30
2022-11-14T12:22:03.300Z,12.30
2022-11-14T12:23:03.363Z,12.30
2022-11-14T12:24:03.335Z,12.30
2022-11-14T12:25:03.473Z,12.30
2022-11-14T12:26:03.662Z,12.40
2022-11-14T12:27:03.560Z,12.40
2022-11-14T12:28:03.791Z,12.40
2022-11-14T12:29:02.781Z,12.40
2022-11-14T12:30:02.669Z,12.40
2022-11-14T12:31:02.834Z,12.40
2022-11-14T12:32:02.892Z,12.40
2022-11-14T12:33:02.905Z,12.40
2022-11-14T12:34:02.887Z,12.40
2022-11-14T12:35:03.034Z,12.40
2022-11-14T12:36:03.043Z,12.40
2022-11-14T12:37:03.071Z,12.40
2022-11-14T12:38:03.099Z,12.40
2022-11-14T12:39:03.113Z,12.40
2022-11-14T12:40:03.207Z,12.40
2022-11-14T12:41:03.372Z,12.40
2022-11-14T12:42:03.334Z,12.40
2022-11-14T12:43:03.343Z,12.40
2022-11-14T12:44:03.544Z,12.40
2022-11-14T12:45:03.450Z,12.40
2022-11-14T12:46:03.573Z,12.40
2022-11-14T12:47:03.564Z,12.40
2022-11-14T12:48:03.604Z,12.40
2022-11-14T12:49:02.681Z,12.40
2022-11-14T12:50:02.627Z,12.30
2022-11-14T12:51:02.861Z,12.30
2022-11-14T12:52:02.851Z,12.30
2022-11-14T12:53:02.887Z,12.40
2022-11-14T12:54:02.868Z,12.30
2022-11-14T12:55:02.798Z,12.30
2022-11-14T12:56:02.804Z,12.40
2022-11-14T12:57:03.008Z,12.40
2022-11-14T12:58:02.945Z,12.40
2022-11-14T12:59:03.043Z,12.40
2022-11-14T13:00:03.159Z,12.40
2022-11-14T13:01:03.140Z,12.40
2022-11-14T13:02:03.122Z,12.40
2022-11-14T13:03:03.152Z,12.40
2022-11-14T13:04:03.298Z,12.40
2022-11-14T13:05:03.351Z,12.40
2022-11-14T13:06:03.449Z,12.40
2022-11-14T13:07:03.523Z,12.40
2022-11-14T13:08:03.484Z,12.40
2022-11-14T13:09:03.564Z,12.40
2022-11-14T13:10:02.671Z,12.50
2022-11-14T13:11:02.778Z,12.50
2022-11-14T13:12:02.833Z,12.50
2022-11-14T13:13:02.902Z,12.50